sensor_id;sensor_type;location;lat;lon;timestamp;P1;durP1;ratioP1;P2;durP2;ratioP2
6527;SDS011;64597;42.664;23.256;2023-06-10T00:01:35;8.70;;;5.05;;
6527;SDS011;64597;42.664;23.256;2023-06-10T00:04:01;8.38;;;4.97;;
6527;SDS011;64597;42.664;23.256;2023-06-10T00:06:27;6.70;;;5.00;;
6527;SDS011;64597;42.664;23.256;2023-06-10T00:08:53;7.78;;;5.22;;
6527;SDS011;64597;42.664;23.256;2023-06-10T00:11:20;6.88;;;4.72;;
6527;SDS011;64597;42.664;23.256;2023-06-10T00:13:46;7.03;;;4.97;;
6527;SDS011;64597;42.664;23.256;2023-06-10T00:16:12;5.85;;;4.90;;
6527;SDS011;64597;42.664;23.256;2023-06-10T00:18:37;7.35;;;5.20;;
6527;SDS011;64597;42.664;23.256;2023-06-10T00:21:04;5.88;;;4.47;;
6527;SDS011;64597;42.664;23.256;2023-06-10T00:23:30;5.50;;;3.95;;
6527;SDS011;64597;42.664;23.256;2023-06-10T00:26:03;5.53;;;4.45;;
6527;SDS011;64597;42.664;23.256;2023-06-10T00:28:29;6.70;;;4.30;;
6527;SDS011;64597;42.664;23.256;2023-06-10T00:30:55;15.30;;;5.07;;
6527;SDS011;64597;42.664;23.256;2023-06-10T00:33:22;6.75;;;4.28;;
6527;SDS011;64597;42.664;23.256;2023-06-10T00:35:48;5.68;;;4.05;;
6527;SDS011;64597;42.664;23.256;2023-06-10T00:38:13;13.70;;;4.68;;
6527;SDS011;64597;42.664;23.256;2023-06-10T00:40:40;6.43;;;4.28;;
6527;SDS011;64597;42.664;23.256;2023-06-10T00:43:08;5.28;;;4.40;;
6527;SDS011;64597;42.664;23.256;2023-06-10T00:45:34;6.43;;;4.90;;
6527;SDS011;64597;42.664;23.256;2023-06-10T00:48:00;5.88;;;4.32;;
6527;SDS011;64597;42.664;23.256;2023-06-10T00:50:27;6.53;;;3.67;;
6527;SDS011;64597;42.664;23.256;2023-06-10T00:52:53;5.97;;;3.97;;
6527;SDS011;64597;42.664;23.256;2023-06-10T00:55:19;5.80;;;4.10;;
6527;SDS011;64597;42.664;23.256;2023-06-10T00:57:45;5.38;;;4.18;;
6527;SDS011;64597;42.664;23.256;2023-06-10T01:00:11;6.53;;;3.60;;
6527;SDS011;64597;42.664;23.256;2023-06-10T01:02:38;5.25;;;3.60;;
6527;SDS011;64597;42.664;23.256;2023-06-10T01:05:03;5.75;;;3.65;;
6527;SDS011;64597;42.664;23.256;2023-06-10T01:10:12;4.53;;;3.83;;
6527;SDS011;64597;42.664;23.256;2023-06-10T01:12:55;4.95;;;3.58;;
6527;SDS011;64597;42.664;23.256;2023-06-10T01:15:27;4.63;;;3.35;;
6527;SDS011;64597;42.664;23.256;2023-06-10T01:18:02;6.88;;;4.00;;
6527;SDS011;64597;42.664;23.256;2023-06-10T01:20:35;7.47;;;4.00;;
6527;SDS011;64597;42.664;23.256;2023-06-10T01:23:05;6.72;;;3.67;;
6527;SDS011;64597;42.664;23.256;2023-06-10T01:25:31;7.18;;;4.15;;
6527;SDS011;64597;42.664;23.256;2023-06-10T01:28:10;5.00;;;4.03;;
6527;SDS011;64597;42.664;23.256;2023-06-10T01:33:43;6.18;;;3.92;;
6527;SDS011;64597;42.664;23.256;2023-06-10T01:36:12;6.13;;;4.57;;
6527;SDS011;64597;42.664;23.256;2023-06-10T01:38:42;6.05;;;4.15;;
6527;SDS011;64597;42.664;23.256;2023-06-10T01:41:09;6.45;;;4.53;;
6527;SDS011;64597;42.664;23.256;2023-06-10T01:43:39;6.32;;;4.32;;
6527;SDS011;64597;42.664;23.256;2023-06-10T01:46:05;5.30;;;3.95;;
6527;SDS011;64597;42.664;23.256;2023-06-10T01:48:31;6.10;;;4.40;;
6527;SDS011;64597;42.664;23.256;2023-06-10T01:50:58;5.00;;;3.97;;
6527;SDS011;64597;42.664;23.256;2023-06-10T01:53:23;5.57;;;4.13;;
6527;SDS011;64597;42.664;23.256;2023-06-10T01:55:49;7.22;;;4.30;;
6527;SDS011;64597;42.664;23.256;2023-06-10T01:58:14;7.68;;;4.25;;
6527;SDS011;64597;42.664;23.256;2023-06-10T02:00:40;5.78;;;4.55;;
6527;SDS011;64597;42.664;23.256;2023-06-10T02:03:05;7.97;;;4.10;;
6527;SDS011;64597;42.664;23.256;2023-06-10T02:05:31;7.85;;;4.80;;
6527;SDS011;64597;42.664;23.256;2023-06-10T02:07:57;9.48;;;4.53;;
6527;SDS011;64597;42.664;23.256;2023-06-10T02:10:22;6.10;;;4.00;;
6527;SDS011;64597;42.664;23.256;2023-06-10T02:12:48;5.85;;;4.15;;
6527;SDS011;64597;42.664;23.256;2023-06-10T02:15:13;5.43;;;4.10;;
6527;SDS011;64597;42.664;23.256;2023-06-10T02:17:39;7.03;;;4.85;;
6527;SDS011;64597;42.664;23.256;2023-06-10T02:20:04;6.47;;;4.10;;
6527;SDS011;64597;42.664;23.256;2023-06-10T02:22:32;7.47;;;4.43;;
6527;SDS011;64597;42.664;23.256;2023-06-10T02:24:58;5.13;;;4.50;;
6527;SDS011;64597;42.664;23.256;2023-06-10T02:27:23;7.03;;;4.40;;
6527;SDS011;64597;42.664;23.256;2023-06-10T02:29:49;6.28;;;4.32;;
6527;SDS011;64597;42.664;23.256;2023-06-10T02:32:15;6.78;;;4.45;;
6527;SDS011;64597;42.664;23.256;2023-06-10T02:34:41;5.75;;;4.20;;
6527;SDS011;64597;42.664;23.256;2023-06-10T02:37:07;6.47;;;4.63;;
6527;SDS011;64597;42.664;23.256;2023-06-10T02:39:33;6.60;;;4.20;;
6527;SDS011;64597;42.664;23.256;2023-06-10T02:41:58;5.78;;;4.03;;
6527;SDS011;64597;42.664;23.256;2023-06-10T02:44:24;9.05;;;4.05;;
6527;SDS011;64597;42.664;23.256;2023-06-10T02:46:49;5.15;;;4.15;;
6527;SDS011;64597;42.664;23.256;2023-06-10T02:49:15;6.32;;;4.05;;
6527;SDS011;64597;42.664;23.256;2023-06-10T02:51:41;6.38;;;4.53;;
6527;SDS011;64597;42.664;23.256;2023-06-10T02:54:06;6.57;;;4.15;;
6527;SDS011;64597;42.664;23.256;2023-06-10T02:56:32;6.53;;;4.07;;
6527;SDS011;64597;42.664;23.256;2023-06-10T02:58:58;5.53;;;3.95;;
6527;SDS011;64597;42.664;23.256;2023-06-10T03:01:23;5.45;;;4.20;;
6527;SDS011;64597;42.664;23.256;2023-06-10T03:03:49;8.13;;;4.75;;
6527;SDS011;64597;42.664;23.256;2023-06-10T03:06:15;7.43;;;4.35;;
6527;SDS011;64597;42.664;23.256;2023-06-10T03:08:41;5.40;;;3.85;;
6527;SDS011;64597;42.664;23.256;2023-06-10T03:11:06;4.68;;;3.28;;
6527;SDS011;64597;42.664;23.256;2023-06-10T03:13:32;6.47;;;3.92;;
6527;SDS011;64597;42.664;23.256;2023-06-10T03:15:57;7.85;;;3.83;;
6527;SDS011;64597;42.664;23.256;2023-06-10T03:18:27;4.53;;;3.28;;
6527;SDS011;64597;42.664;23.256;2023-06-10T03:20:53;4.32;;;2.95;;
6527;SDS011;64597;42.664;23.256;2023-06-10T03:23:20;5.72;;;3.35;;
6527;SDS011;64597;42.664;23.256;2023-06-10T03:25:46;4.78;;;3.33;;
6527;SDS011;64597;42.664;23.256;2023-06-10T03:28:11;3.88;;;3.28;;
6527;SDS011;64597;42.664;23.256;2023-06-10T03:30:37;7.43;;;4.78;;
6527;SDS011;64597;42.664;23.256;2023-06-10T03:33:02;7.93;;;3.70;;
6527;SDS011;64597;42.664;23.256;2023-06-10T03:35:28;6.20;;;4.22;;
6527;SDS011;64597;42.664;23.256;2023-06-10T03:37:54;6.32;;;4.68;;
6527;SDS011;64597;42.664;23.256;2023-06-10T03:40:20;8.10;;;5.20;;
6527;SDS011;64597;42.664;23.256;2023-06-10T03:42:45;7.10;;;4.78;;
6527;SDS011;64597;42.664;23.256;2023-06-10T03:45:10;8.38;;;5.65;;
6527;SDS011;64597;42.664;23.256;2023-06-10T03:47:37;6.82;;;5.03;;
6527;SDS011;64597;42.664;23.256;2023-06-10T03:50:03;6.63;;;5.07;;
6527;SDS011;64597;42.664;23.256;2023-06-10T03:52:30;6.90;;;5.00;;
6527;SDS011;64597;42.664;23.256;2023-06-10T03:54:55;8.68;;;6.18;;
6527;SDS011;64597;42.664;23.256;2023-06-10T03:57:21;6.47;;;4.82;;
6527;SDS011;64597;42.664;23.256;2023-06-10T03:59:46;8.73;;;6.22;;
6527;SDS011;64597;42.664;23.256;2023-06-10T04:02:12;9.98;;;5.47;;
6527;SDS011;64597;42.664;23.256;2023-06-10T04:04:37;7.60;;;5.53;;
6527;SDS011;64597;42.664;23.256;2023-06-10T04:07:03;7.47;;;4.40;;
6527;SDS011;64597;42.664;23.256;2023-06-10T04:09:31;9.05;;;5.53;;
6527;SDS011;64597;42.664;23.256;2023-06-10T04:11:57;7.80;;;5.13;;
6527;SDS011;64597;42.664;23.256;2023-06-10T04:14:22;7.03;;;5.45;;
6527;SDS011;64597;42.664;23.256;2023-06-10T04:16:48;7.45;;;4.97;;
6527;SDS011;64597;42.664;23.256;2023-06-10T04:19:15;8.02;;;5.28;;
6527;SDS011;64597;42.664;23.256;2023-06-10T04:21:41;8.45;;;5.32;;
6527;SDS011;64597;42.664;23.256;2023-06-10T04:24:07;7.80;;;5.35;;
6527;SDS011;64597;42.664;23.256;2023-06-10T04:26:32;9.70;;;5.72;;
6527;SDS011;64597;42.664;23.256;2023-06-10T04:28:58;6.88;;;4.80;;
6527;SDS011;64597;42.664;23.256;2023-06-10T04:31:24;9.07;;;5.22;;
6527;SDS011;64597;42.664;23.256;2023-06-10T04:33:49;7.30;;;5.50;;
6527;SDS011;64597;42.664;23.256;2023-06-10T04:36:15;7.22;;;5.40;;
6527;SDS011;64597;42.664;23.256;2023-06-10T04:38:40;8.82;;;5.38;;
6527;SDS011;64597;42.664;23.256;2023-06-10T04:41:06;6.90;;;5.57;;
6527;SDS011;64597;42.664;23.256;2023-06-10T04:43:32;7.72;;;4.90;;
6527;SDS011;64597;42.664;23.256;2023-06-10T04:45:57;9.75;;;5.07;;
6527;SDS011;64597;42.664;23.256;2023-06-10T04:48:23;6.78;;;4.82;;
6527;SDS011;64597;42.664;23.256;2023-06-10T04:50:49;8.63;;;5.57;;
6527;SDS011;64597;42.664;23.256;2023-06-10T04:53:15;8.73;;;5.22;;
6527;SDS011;64597;42.664;23.256;2023-06-10T04:55:41;6.35;;;4.90;;
6527;SDS011;64597;42.664;23.256;2023-06-10T04:58:07;8.02;;;5.43;;
6527;SDS011;64597;42.664;23.256;2023-06-10T05:00:33;7.78;;;5.72;;
6527;SDS011;64597;42.664;23.256;2023-06-10T05:02:58;6.18;;;5.55;;
6527;SDS011;64597;42.664;23.256;2023-06-10T05:05:23;6.20;;;4.90;;
6527;SDS011;64597;42.664;23.256;2023-06-10T05:07:49;7.78;;;5.55;;
6527;SDS011;64597;42.664;23.256;2023-06-10T05:10:14;9.70;;;5.80;;
6527;SDS011;64597;42.664;23.256;2023-06-10T05:12:40;8.95;;;5.10;;
6527;SDS011;64597;42.664;23.256;2023-06-10T05:15:06;3.30;;;2.33;;
6527;SDS011;64597;42.664;23.256;2023-06-10T05:17:32;5.18;;;3.38;;
6527;SDS011;64597;42.664;23.256;2023-06-10T05:20:00;5.05;;;3.00;;
6527;SDS011;64597;42.664;23.256;2023-06-10T05:22:26;7.70;;;3.90;;
6527;SDS011;64597;42.664;23.256;2023-06-10T05:24:52;8.18;;;4.53;;
6527;SDS011;64597;42.664;23.256;2023-06-10T05:27:18;7.03;;;4.65;;
6527;SDS011;64597;42.664;23.256;2023-06-10T05:29:44;9.52;;;4.93;;
6527;SDS011;64597;42.664;23.256;2023-06-10T05:32:10;7.03;;;4.47;;
6527;SDS011;64597;42.664;23.256;2023-06-10T05:34:36;5.88;;;4.78;;
6527;SDS011;64597;42.664;23.256;2023-06-10T05:37:02;7.72;;;4.60;;
6527;SDS011;64597;42.664;23.256;2023-06-10T05:39:28;6.90;;;4.40;;
6527;SDS011;64597;42.664;23.256;2023-06-10T05:41:53;8.85;;;4.78;;
6527;SDS011;64597;42.664;23.256;2023-06-10T05:44:19;12.73;;;5.40;;
6527;SDS011;64597;42.664;23.256;2023-06-10T05:46:44;6.50;;;4.53;;
6527;SDS011;64597;42.664;23.256;2023-06-10T05:49:10;5.90;;;4.03;;
6527;SDS011;64597;42.664;23.256;2023-06-10T05:51:35;5.55;;;4.50;;
6527;SDS011;64597;42.664;23.256;2023-06-10T05:54:01;7.75;;;4.32;;
6527;SDS011;64597;42.664;23.256;2023-06-10T05:56:27;7.45;;;4.32;;
6527;SDS011;64597;42.664;23.256;2023-06-10T05:58:53;5.55;;;4.53;;
6527;SDS011;64597;42.664;23.256;2023-06-10T06:01:18;7.35;;;4.68;;
6527;SDS011;64597;42.664;23.256;2023-06-10T06:03:43;8.45;;;5.22;;
6527;SDS011;64597;42.664;23.256;2023-06-10T06:06:09;6.70;;;4.82;;
6527;SDS011;64597;42.664;23.256;2023-06-10T06:08:35;10.98;;;5.28;;
6527;SDS011;64597;42.664;23.256;2023-06-10T06:11:00;6.88;;;4.95;;
6527;SDS011;64597;42.664;23.256;2023-06-10T06:13:25;7.15;;;5.28;;
6527;SDS011;64597;42.664;23.256;2023-06-10T06:15:51;7.60;;;4.70;;
6527;SDS011;64597;42.664;23.256;2023-06-10T06:18:17;7.93;;;4.72;;
6527;SDS011;64597;42.664;23.256;2023-06-10T06:20:43;6.93;;;5.07;;
6527;SDS011;64597;42.664;23.256;2023-06-10T06:23:08;7.32;;;5.00;;
6527;SDS011;64597;42.664;23.256;2023-06-10T06:25:35;9.90;;;5.85;;
6527;SDS011;64597;42.664;23.256;2023-06-10T06:30:29;6.95;;;5.72;;
6527;SDS011;64597;42.664;23.256;2023-06-10T06:32:54;7.75;;;5.13;;
6527;SDS011;64597;42.664;23.256;2023-06-10T06:35:20;6.63;;;4.32;;
6527;SDS011;64597;42.664;23.256;2023-06-10T06:37:45;4.70;;;3.85;;
6527;SDS011;64597;42.664;23.256;2023-06-10T06:40:11;6.43;;;4.70;;
6527;SDS011;64597;42.664;23.256;2023-06-10T06:42:37;8.63;;;3.78;;
6527;SDS011;64597;42.664;23.256;2023-06-10T06:45:02;4.53;;;3.58;;
6527;SDS011;64597;42.664;23.256;2023-06-10T06:47:28;7.63;;;4.50;;
6527;SDS011;64597;42.664;23.256;2023-06-10T06:49:54;5.95;;;4.22;;
6527;SDS011;64597;42.664;23.256;2023-06-10T06:52:19;5.70;;;3.55;;
6527;SDS011;64597;42.664;23.256;2023-06-10T06:54:45;5.40;;;3.85;;
6527;SDS011;64597;42.664;23.256;2023-06-10T06:57:10;4.55;;;3.50;;
6527;SDS011;64597;42.664;23.256;2023-06-10T06:59:36;7.53;;;3.88;;
6527;SDS011;64597;42.664;23.256;2023-06-10T07:02:02;5.78;;;4.22;;
6527;SDS011;64597;42.664;23.256;2023-06-10T07:04:28;5.38;;;3.75;;
6527;SDS011;64597;42.664;23.256;2023-06-10T07:06:54;6.13;;;3.88;;
6527;SDS011;64597;42.664;23.256;2023-06-10T07:09:19;4.03;;;3.15;;
6527;SDS011;64597;42.664;23.256;2023-06-10T07:11:44;6.43;;;3.70;;
6527;SDS011;64597;42.664;23.256;2023-06-10T07:14:10;7.53;;;3.83;;
6527;SDS011;64597;42.664;23.256;2023-06-10T07:16:35;5.80;;;3.88;;
6527;SDS011;64597;42.664;23.256;2023-06-10T07:19:01;4.38;;;3.10;;
6527;SDS011;64597;42.664;23.256;2023-06-10T07:21:26;4.00;;;2.90;;
6527;SDS011;64597;42.664;23.256;2023-06-10T07:23:53;3.70;;;3.00;;
6527;SDS011;64597;42.664;23.256;2023-06-10T07:26:19;4.00;;;2.88;;
6527;SDS011;64597;42.664;23.256;2023-06-10T07:28:44;4.65;;;3.03;;
6527;SDS011;64597;42.664;23.256;2023-06-10T07:31:10;5.95;;;3.30;;
6527;SDS011;64597;42.664;23.256;2023-06-10T07:33:37;4.30;;;3.25;;
6527;SDS011;64597;42.664;23.256;2023-06-10T07:36:04;5.78;;;2.95;;
6527;SDS011;64597;42.664;23.256;2023-06-10T07:38:30;4.38;;;3.17;;
6527;SDS011;64597;42.664;23.256;2023-06-10T07:40:56;4.30;;;2.72;;
6527;SDS011;64597;42.664;23.256;2023-06-10T07:43:21;5.18;;;3.63;;
6527;SDS011;64597;42.664;23.256;2023-06-10T07:45:47;8.50;;;3.45;;
6527;SDS011;64597;42.664;23.256;2023-06-10T07:48:12;5.68;;;3.53;;
6527;SDS011;64597;42.664;23.256;2023-06-10T07:50:38;5.63;;;3.33;;
6527;SDS011;64597;42.664;23.256;2023-06-10T07:53:03;5.90;;;3.95;;
6527;SDS011;64597;42.664;23.256;2023-06-10T07:55:29;3.88;;;2.97;;
6527;SDS011;64597;42.664;23.256;2023-06-10T07:57:55;3.70;;;3.17;;
6527;SDS011;64597;42.664;23.256;2023-06-10T08:00:20;5.32;;;3.40;;
6527;SDS011;64597;42.664;23.256;2023-06-10T08:02:46;3.90;;;3.05;;
6527;SDS011;64597;42.664;23.256;2023-06-10T08:05:12;5.13;;;3.22;;
6527;SDS011;64597;42.664;23.256;2023-06-10T08:07:41;4.35;;;2.95;;
6527;SDS011;64597;42.664;23.256;2023-06-10T08:10:07;5.65;;;3.30;;
6527;SDS011;64597;42.664;23.256;2023-06-10T08:12:33;4.18;;;2.80;;
6527;SDS011;64597;42.664;23.256;2023-06-10T08:14:59;2.90;;;2.33;;
6527;SDS011;64597;42.664;23.256;2023-06-10T08:17:25;4.82;;;3.25;;
6527;SDS011;64597;42.664;23.256;2023-06-10T08:19:51;4.30;;;3.35;;
6527;SDS011;64597;42.664;23.256;2023-06-10T08:22:16;6.85;;;3.97;;
6527;SDS011;64597;42.664;23.256;2023-06-10T08:24:42;4.68;;;3.00;;
6527;SDS011;64597;42.664;23.256;2023-06-10T08:27:07;5.22;;;3.10;;
6527;SDS011;64597;42.664;23.256;2023-06-10T08:29:33;2.97;;;2.65;;
6527;SDS011;64597;42.664;23.256;2023-06-10T08:31:59;3.83;;;3.25;;
6527;SDS011;64597;42.664;23.256;2023-06-10T08:34:25;3.67;;;2.50;;
6527;SDS011;64597;42.664;23.256;2023-06-10T08:36:50;5.13;;;2.63;;
6527;SDS011;64597;42.664;23.256;2023-06-10T08:39:20;3.70;;;2.90;;
6527;SDS011;64597;42.664;23.256;2023-06-10T08:41:59;3.10;;;2.42;;
6527;SDS011;64597;42.664;23.256;2023-06-10T08:44:28;2.67;;;2.38;;
6527;SDS011;64597;42.664;23.256;2023-06-10T08:46:59;3.15;;;2.30;;
6527;SDS011;64597;42.664;23.256;2023-06-10T08:49:26;4.75;;;2.38;;
6527;SDS011;64597;42.664;23.256;2023-06-10T08:51:58;4.20;;;2.83;;
6527;SDS011;64597;42.664;23.256;2023-06-10T08:54:28;3.75;;;2.60;;
6527;SDS011;64597;42.664;23.256;2023-06-10T08:56:57;8.18;;;3.08;;
6527;SDS011;64597;42.664;23.256;2023-06-10T08:59:26;5.07;;;3.10;;
6527;SDS011;64597;42.664;23.256;2023-06-10T09:01:52;5.72;;;2.50;;
6527;SDS011;64597;42.664;23.256;2023-06-10T09:04:19;4.40;;;2.60;;
6527;SDS011;64597;42.664;23.256;2023-06-10T09:06:45;4.22;;;2.70;;
6527;SDS011;64597;42.664;23.256;2023-06-10T09:09:14;4.88;;;2.55;;
6527;SDS011;64597;42.664;23.256;2023-06-10T09:11:41;3.95;;;3.13;;
6527;SDS011;64597;42.664;23.256;2023-06-10T09:16:32;7.05;;;5.43;;
6527;SDS011;64597;42.664;23.256;2023-06-10T09:18:58;9.63;;;5.95;;
6527;SDS011;64597;42.664;23.256;2023-06-10T09:21:25;6.45;;;3.65;;
6527;SDS011;64597;42.664;23.256;2023-06-10T09:23:51;6.72;;;4.43;;
6527;SDS011;64597;42.664;23.256;2023-06-10T09:26:17;10.18;;;6.45;;
6527;SDS011;64597;42.664;23.256;2023-06-10T09:28:49;31.10;;;14.50;;
6527;SDS011;64597;42.664;23.256;2023-06-10T09:31:17;25.20;;;14.93;;
6527;SDS011;64597;42.664;23.256;2023-06-10T09:33:46;17.88;;;11.40;;
6527;SDS011;64597;42.664;23.256;2023-06-10T09:36:20;20.65;;;12.95;;
6527;SDS011;64597;42.664;23.256;2023-06-10T09:38:49;21.27;;;11.35;;
6527;SDS011;64597;42.664;23.256;2023-06-10T09:41:15;8.32;;;5.13;;
6527;SDS011;64597;42.664;23.256;2023-06-10T09:43:44;7.03;;;3.67;;
6527;SDS011;64597;42.664;23.256;2023-06-10T09:46:20;3.53;;;2.85;;
6527;SDS011;64597;42.664;23.256;2023-06-10T09:48:47;6.57;;;4.35;;
6527;SDS011;64597;42.664;23.256;2023-06-10T09:51:13;6.72;;;3.63;;
6527;SDS011;64597;42.664;23.256;2023-06-10T09:53:39;7.13;;;5.40;;
6527;SDS011;64597;42.664;23.256;2023-06-10T09:56:05;6.28;;;3.95;;
6527;SDS011;64597;42.664;23.256;2023-06-10T09:58:38;9.20;;;4.97;;
6527;SDS011;64597;42.664;23.256;2023-06-10T10:01:12;7.07;;;4.60;;
6527;SDS011;64597;42.664;23.256;2023-06-10T10:03:46;5.47;;;3.30;;
6527;SDS011;64597;42.664;23.256;2023-06-10T10:06:13;7.65;;;4.03;;
6527;SDS011;64597;42.664;23.256;2023-06-10T10:08:40;4.68;;;3.53;;
6527;SDS011;64597;42.664;23.256;2023-06-10T10:11:06;6.38;;;3.85;;
6527;SDS011;64597;42.664;23.256;2023-06-10T10:13:33;5.07;;;4.28;;
6527;SDS011;64597;42.664;23.256;2023-06-10T10:16:00;6.45;;;3.70;;
6527;SDS011;64597;42.664;23.256;2023-06-10T10:18:29;5.75;;;4.50;;
6527;SDS011;64597;42.664;23.256;2023-06-10T10:20:57;4.05;;;3.10;;
6527;SDS011;64597;42.664;23.256;2023-06-10T10:26:37;7.57;;;4.72;;
6527;SDS011;64597;42.664;23.256;2023-06-10T10:31:54;4.63;;;3.70;;
6527;SDS011;64597;42.664;23.256;2023-06-10T10:37:13;3.67;;;2.85;;
6527;SDS011;64597;42.664;23.256;2023-06-10T10:39:38;5.43;;;3.50;;
6527;SDS011;64597;42.664;23.256;2023-06-10T10:42:04;6.28;;;3.42;;
6527;SDS011;64597;42.664;23.256;2023-06-10T10:44:34;3.67;;;3.00;;
6527;SDS011;64597;42.664;23.256;2023-06-10T10:47:02;5.82;;;4.15;;
6527;SDS011;64597;42.664;23.256;2023-06-10T10:49:29;4.90;;;2.92;;
6527;SDS011;64597;42.664;23.256;2023-06-10T10:51:57;5.80;;;3.08;;
6527;SDS011;64597;42.664;23.256;2023-06-10T10:54:33;5.40;;;3.22;;
6527;SDS011;64597;42.664;23.256;2023-06-10T10:57:10;4.93;;;3.13;;
6527;SDS011;64597;42.664;23.256;2023-06-10T10:59:43;5.10;;;3.60;;
6527;SDS011;64597;42.664;23.256;2023-06-10T11:05:04;6.30;;;4.35;;
6527;SDS011;64597;42.664;23.256;2023-06-10T11:07:31;4.55;;;3.72;;
6527;SDS011;64597;42.664;23.256;2023-06-10T11:09:59;6.53;;;4.38;;
6527;SDS011;64597;42.664;23.256;2023-06-10T11:12:40;3.60;;;2.97;;
6527;SDS011;64597;42.664;23.256;2023-06-10T11:15:09;3.67;;;3.08;;
6527;SDS011;64597;42.664;23.256;2023-06-10T11:17:35;4.18;;;3.15;;
6527;SDS011;64597;42.664;23.256;2023-06-10T11:20:00;3.65;;;2.97;;
6527;SDS011;64597;42.664;23.256;2023-06-10T11:22:29;3.25;;;2.30;;
6527;SDS011;64597;42.664;23.256;2023-06-10T11:24:54;4.30;;;2.85;;
6527;SDS011;64597;42.664;23.256;2023-06-10T11:27:21;3.20;;;2.72;;
6527;SDS011;64597;42.664;23.256;2023-06-10T11:32:33;3.47;;;2.50;;
6527;SDS011;64597;42.664;23.256;2023-06-10T11:34:59;2.60;;;2.40;;
6527;SDS011;64597;42.664;23.256;2023-06-10T11:37:28;3.28;;;2.60;;
6527;SDS011;64597;42.664;23.256;2023-06-10T11:39:54;3.13;;;2.60;;
6527;SDS011;64597;42.664;23.256;2023-06-10T11:42:21;6.20;;;2.80;;
6527;SDS011;64597;42.664;23.256;2023-06-10T11:44:48;4.60;;;3.08;;
6527;SDS011;64597;42.664;23.256;2023-06-10T11:47:18;3.30;;;2.58;;
6527;SDS011;64597;42.664;23.256;2023-06-10T11:49:45;3.53;;;2.60;;
6527;SDS011;64597;42.664;23.256;2023-06-10T11:52:11;2.78;;;2.47;;
6527;SDS011;64597;42.664;23.256;2023-06-10T11:54:37;4.43;;;2.70;;
6527;SDS011;64597;42.664;23.256;2023-06-10T11:57:03;3.47;;;2.95;;
6527;SDS011;64597;42.664;23.256;2023-06-10T11:59:29;3.72;;;2.80;;
6527;SDS011;64597;42.664;23.256;2023-06-10T12:01:55;5.25;;;2.92;;
6527;SDS011;64597;42.664;23.256;2023-06-10T12:04:21;3.17;;;2.53;;
6527;SDS011;64597;42.664;23.256;2023-06-10T12:09:29;3.05;;;2.75;;
6527;SDS011;64597;42.664;23.256;2023-06-10T12:11:56;4.05;;;2.92;;
6527;SDS011;64597;42.664;23.256;2023-06-10T12:17:17;3.83;;;3.22;;
6527;SDS011;64597;42.664;23.256;2023-06-10T12:19:42;3.55;;;2.72;;
6527;SDS011;64597;42.664;23.256;2023-06-10T12:22:08;4.05;;;3.30;;
6527;SDS011;64597;42.664;23.256;2023-06-10T12:24:42;4.82;;;3.20;;
6527;SDS011;64597;42.664;23.256;2023-06-10T12:27:12;4.28;;;2.70;;
6527;SDS011;64597;42.664;23.256;2023-06-10T12:29:38;4.65;;;3.13;;
6527;SDS011;64597;42.664;23.256;2023-06-10T12:32:03;4.05;;;2.80;;
6527;SDS011;64597;42.664;23.256;2023-06-10T12:34:37;4.88;;;2.90;;
6527;SDS011;64597;42.664;23.256;2023-06-10T12:37:05;3.80;;;2.78;;
6527;SDS011;64597;42.664;23.256;2023-06-10T12:39:38;3.53;;;2.90;;
6527;SDS011;64597;42.664;23.256;2023-06-10T12:42:04;3.97;;;2.92;;
6527;SDS011;64597;42.664;23.256;2023-06-10T12:44:34;5.07;;;4.38;;
6527;SDS011;64597;42.664;23.256;2023-06-10T12:47:09;4.70;;;3.55;;
6527;SDS011;64597;42.664;23.256;2023-06-10T12:49:37;4.25;;;2.85;;
6527;SDS011;64597;42.664;23.256;2023-06-10T12:52:04;4.35;;;2.83;;
6527;SDS011;64597;42.664;23.256;2023-06-10T12:54:30;3.38;;;2.72;;
6527;SDS011;64597;42.664;23.256;2023-06-10T12:56:55;3.88;;;2.75;;
6527;SDS011;64597;42.664;23.256;2023-06-10T12:59:21;2.97;;;2.60;;
6527;SDS011;64597;42.664;23.256;2023-06-10T13:01:53;3.30;;;2.70;;
6527;SDS011;64597;42.664;23.256;2023-06-10T13:04:19;4.63;;;2.67;;
6527;SDS011;64597;42.664;23.256;2023-06-10T13:06:46;4.25;;;2.88;;
6527;SDS011;64597;42.664;23.256;2023-06-10T13:09:15;4.60;;;3.10;;
6527;SDS011;64597;42.664;23.256;2023-06-10T13:11:41;5.10;;;3.00;;
6527;SDS011;64597;42.664;23.256;2023-06-10T13:14:07;3.00;;;2.70;;
6527;SDS011;64597;42.664;23.256;2023-06-10T13:16:35;4.18;;;2.83;;
6527;SDS011;64597;42.664;23.256;2023-06-10T13:19:02;3.38;;;2.70;;
6527;SDS011;64597;42.664;23.256;2023-06-10T13:21:30;4.72;;;2.80;;
6527;SDS011;64597;42.664;23.256;2023-06-10T13:23:56;4.88;;;2.75;;
6527;SDS011;64597;42.664;23.256;2023-06-10T13:26:21;6.85;;;3.03;;
6527;SDS011;64597;42.664;23.256;2023-06-10T13:28:46;5.13;;;2.83;;
6527;SDS011;64597;42.664;23.256;2023-06-10T13:31:12;3.90;;;2.92;;
6527;SDS011;64597;42.664;23.256;2023-06-10T13:33:37;4.32;;;2.50;;
6527;SDS011;64597;42.664;23.256;2023-06-10T13:36:03;4.88;;;3.70;;
6527;SDS011;64597;42.664;23.256;2023-06-10T13:38:29;3.85;;;2.53;;
6527;SDS011;64597;42.664;23.256;2023-06-10T13:40:54;3.35;;;2.42;;
6527;SDS011;64597;42.664;23.256;2023-06-10T13:43:20;4.47;;;2.83;;
6527;SDS011;64597;42.664;23.256;2023-06-10T13:45:45;3.90;;;2.85;;
6527;SDS011;64597;42.664;23.256;2023-06-10T13:48:11;3.33;;;2.55;;
6527;SDS011;64597;42.664;23.256;2023-06-10T13:50:37;5.35;;;2.67;;
6527;SDS011;64597;42.664;23.256;2023-06-10T13:53:02;5.75;;;3.00;;
6527;SDS011;64597;42.664;23.256;2023-06-10T13:55:28;7.55;;;3.03;;
6527;SDS011;64597;42.664;23.256;2023-06-10T13:57:53;3.55;;;2.85;;
6527;SDS011;64597;42.664;23.256;2023-06-10T14:00:19;5.57;;;3.10;;
6527;SDS011;64597;42.664;23.256;2023-06-10T14:02:44;4.00;;;2.72;;
6527;SDS011;64597;42.664;23.256;2023-06-10T14:05:11;4.50;;;2.90;;
6527;SDS011;64597;42.664;23.256;2023-06-10T14:07:37;3.03;;;2.38;;
6527;SDS011;64597;42.664;23.256;2023-06-10T14:10:02;3.83;;;2.80;;
6527;SDS011;64597;42.664;23.256;2023-06-10T14:12:28;4.35;;;3.00;;
6527;SDS011;64597;42.664;23.256;2023-06-10T14:14:54;3.90;;;2.83;;
6527;SDS011;64597;42.664;23.256;2023-06-10T14:17:19;3.75;;;2.85;;
6527;SDS011;64597;42.664;23.256;2023-06-10T14:19:45;4.50;;;2.90;;
6527;SDS011;64597;42.664;23.256;2023-06-10T14:22:10;4.22;;;3.03;;
6527;SDS011;64597;42.664;23.256;2023-06-10T14:24:36;4.50;;;2.85;;
6527;SDS011;64597;42.664;23.256;2023-06-10T14:27:02;4.35;;;2.90;;
6527;SDS011;64597;42.664;23.256;2023-06-10T14:29:28;4.40;;;2.60;;
6527;SDS011;64597;42.664;23.256;2023-06-10T14:31:57;5.38;;;2.92;;
6527;SDS011;64597;42.664;23.256;2023-06-10T14:34:22;4.47;;;3.22;;
6527;SDS011;64597;42.664;23.256;2023-06-10T14:36:53;4.90;;;3.13;;
6527;SDS011;64597;42.664;23.256;2023-06-10T14:39:19;5.18;;;2.95;;
6527;SDS011;64597;42.664;23.256;2023-06-10T14:41:44;3.13;;;2.83;;
6527;SDS011;64597;42.664;23.256;2023-06-10T14:44:09;10.13;;;3.40;;
6527;SDS011;64597;42.664;23.256;2023-06-10T14:46:35;3.63;;;2.72;;
6527;SDS011;64597;42.664;23.256;2023-06-10T14:49:00;4.00;;;3.08;;
6527;SDS011;64597;42.664;23.256;2023-06-10T14:51:27;3.45;;;2.65;;
6527;SDS011;64597;42.664;23.256;2023-06-10T14:53:53;3.60;;;2.78;;
6527;SDS011;64597;42.664;23.256;2023-06-10T14:56:18;6.28;;;2.95;;
6527;SDS011;64597;42.664;23.256;2023-06-10T14:58:44;3.80;;;2.80;;
6527;SDS011;64597;42.664;23.256;2023-06-10T15:01:09;4.00;;;2.50;;
6527;SDS011;64597;42.664;23.256;2023-06-10T15:03:35;4.82;;;3.10;;
6527;SDS011;64597;42.664;23.256;2023-06-10T15:06:00;4.72;;;3.28;;
6527;SDS011;64597;42.664;23.256;2023-06-10T15:08:26;4.30;;;3.15;;
6527;SDS011;64597;42.664;23.256;2023-06-10T15:10:53;4.25;;;3.03;;
6527;SDS011;64597;42.664;23.256;2023-06-10T15:13:19;3.28;;;2.33;;
6527;SDS011;64597;42.664;23.256;2023-06-10T15:15:45;3.60;;;2.78;;